sensor_id;sensor_type;location;lat;lon;timestamp;temperature;humidity
20574;DHT22;10445;50.216;7.912;2023-12-20T00:02:21;4.20;99.90
20574;DHT22;10445;50.216;7.912;2023-12-20T00:04:50;4.20;99.90
20574;DHT22;10445;50.216;7.912;2023-12-20T00:07:20;4.20;99.90
20574;DHT22;10445;50.216;7.912;2023-12-20T00:09:48;4.20;99.90
20574;DHT22;10445;50.216;7.912;2023-12-20T00:12:17;4.10;99.90
20574;DHT22;10445;50.216;7.912;2023-12-20T00:14:45;4.10;99.90
20574;DHT22;10445;50.216;7.912;2023-12-20T00:17:14;4.20;99.90
20574;DHT22;10445;50.216;7.912;2023-12-20T00:19:41;4.10;99.90
20574;DHT22;10445;50.216;7.912;2023-12-20T00:22:10;4.10;99.90
20574;DHT22;10445;50.216;7.912;2023-12-20T00:24:40;4.10;99.90
20574;DHT22;10445;50.216;7.912;2023-12-20T00:27:08;4.10;99.90
20574;DHT22;10445;50.216;7.912;2023-12-20T00:29:36;4.20;99.90
20574;DHT22;10445;50.216;7.912;2023-12-20T00:32:05;4.10;99.90
20574;DHT22;10445;50.216;7.912;2023-12-20T00:34:34;4.20;99.90
20574;DHT22;10445;50.216;7.912;2023-12-20T00:37:03;4.20;99.90
20574;DHT22;10445;50.216;7.912;2023-12-20T00:39:32;4.20;99.90
20574;DHT22;10445;50.216;7.912;2023-12-20T00:42:02;4.20;99.90
20574;DHT22;10445;50.216;7.912;2023-12-20T00:44:30;4.20;99.90
20574;DHT22;10445;50.216;7.912;2023-12-20T00:46:58;4.20;99.90
20574;DHT22;10445;50.216;7.912;2023-12-20T00:49:28;4.20;99.90
20574;DHT22;10445;50.216;7.912;2023-12-20T00:51:56;4.20;99.90
20574;DHT22;10445;50.216;7.912;2023-12-20T00:54:25;4.20;99.90
20574;DHT22;10445;50.216;7.912;2023-12-20T00:56:53;4.20;99.90
20574;DHT22;10445;50.216;7.912;2023-12-20T00:59:23;4.20;99.90
20574;DHT22;10445;50.216;7.912;2023-12-20T01:01:52;4.20;99.90
20574;DHT22;10445;50.216;7.912;2023-12-20T01:04:20;4.20;99.90
20574;DHT22;10445;50.216;7.912;2023-12-20T01:06:49;4.20;99.90
20574;DHT22;10445;50.216;7.912;2023-12-20T01:09:17;4.20;99.90
20574;DHT22;10445;50.216;7.912;2023-12-20T01:11:45;4.20;99.90
20574;DHT22;10445;50.216;7.912;2023-12-20T01:14:14;4.20;99.90
20574;DHT22;10445;50.216;7.912;2023-12-20T01:16:44;4.20;99.90
20574;DHT22;10445;50.216;7.912;2023-12-20T01:19:13;4.20;99.90
20574;DHT22;10445;50.216;7.912;2023-12-20T01:21:42;4.20;99.90
20574;DHT22;10445;50.216;7.912;2023-12-20T01:24:10;4.20;99.90
20574;DHT22;10445;50.216;7.912;2023-12-20T01:26:38;4.20;99.90
20574;DHT22;10445;50.216;7.912;2023-12-20T01:29:07;4.30;99.90
20574;DHT22;10445;50.216;7.912;2023-12-20T01:31:35;4.20;99.90
20574;DHT22;10445;50.216;7.912;2023-12-20T01:34:05;4.20;99.90
20574;DHT22;10445;50.216;7.912;2023-12-20T01:36:34;4.20;99.90
20574;DHT22;10445;50.216;7.912;2023-12-20T01:39:02;4.30;99.90
20574;DHT22;10445;50.216;7.912;2023-12-20T01:41:39;4.20;99.90
20574;DHT22;10445;50.216;7.912;2023-12-20T01:44:07;4.20;99.90
20574;DHT22;10445;50.216;7.912;2023-12-20T01:46:36;4.20;99.90
20574;DHT22;10445;50.216;7.912;2023-12-20T01:49:05;4.20;99.90
20574;DHT22;10445;50.216;7.912;2023-12-20T01:51:34;4.20;99.90
20574;DHT22;10445;50.216;7.912;2023-12-20T01:54:04;4.30;99.90
20574;DHT22;10445;50.216;7.912;2023-12-20T01:56:33;4.30;99.90
20574;DHT22;10445;50.216;7.912;2023-12-20T01:59:02;4.30;99.90
20574;DHT22;10445;50.216;7.912;2023-12-20T02:01:32;4.30;99.90
20574;DHT22;10445;50.216;7.912;2023-12-20T02:04:01;4.30;99.90
20574;DHT22;10445;50.216;7.912;2023-12-20T02:06:33;4.30;99.90
20574;DHT22;10445;50.216;7.912;2023-12-20T02:09:02;4.40;99.90
20574;DHT22;10445;50.216;7.912;2023-12-20T02:11:31;4.40;99.90
20574;DHT22;10445;50.216;7.912;2023-12-20T02:13:59;4.40;99.90
20574;DHT22;10445;50.216;7.912;2023-12-20T02:16:28;4.40;99.90
20574;DHT22;10445;50.216;7.912;2023-12-20T02:18:56;4.50;99.90
20574;DHT22;10445;50.216;7.912;2023-12-20T02:21:32;4.40;99.90
20574;DHT22;10445;50.216;7.912;2023-12-20T02:24:01;4.40;99.90
20574;DHT22;10445;50.216;7.912;2023-12-20T02:26:29;4.40;99.90
20574;DHT22;10445;50.216;7.912;2023-12-20T02:28:59;4.30;99.90
20574;DHT22;10445;50.216;7.912;2023-12-20T02:31:27;4.30;99.90
20574;DHT22;10445;50.216;7.912;2023-12-20T02:33:55;4.30;99.90
20574;DHT22;10445;50.216;7.912;2023-12-20T02:36:25;4.30;99.90
20574;DHT22;10445;50.216;7.912;2023-12-20T02:38:54;4.30;99.90
20574;DHT22;10445;50.216;7.912;2023-12-20T02:41:22;4.40;99.90
20574;DHT22;10445;50.216;7.912;2023-12-20T02:43:51;4.40;99.90
20574;DHT22;10445;50.216;7.912;2023-12-20T02:46:19;4.40;99.90
20574;DHT22;10445;50.216;7.912;2023-12-20T02:48:48;4.50;99.90
20574;DHT22;10445;50.216;7.912;2023-12-20T02:51:16;4.40;99.90
20574;DHT22;10445;50.216;7.912;2023-12-20T02:53:46;4.40;99.90
20574;DHT22;10445;50.216;7.912;2023-12-20T02:56:15;4.40;99.90
20574;DHT22;10445;50.216;7.912;2023-12-20T02:58:43;4.40;99.90
20574;DHT22;10445;50.216;7.912;2023-12-20T03:01:11;4.40;99.90
20574;DHT22;10445;50.216;7.912;2023-12-20T03:03:40;4.40;99.90
20574;DHT22;10445;50.216;7.912;2023-12-20T03:06:08;4.50;99.90
20574;DHT22;10445;50.216;7.912;2023-12-20T03:08:37;4.50;99.90
20574;DHT22;10445;50.216;7.912;2023-12-20T03:11:07;4.50;99.90
20574;DHT22;10445;50.216;7.912;2023-12-20T03:13:35;4.50;99.90
20574;DHT22;10445;50.216;7.912;2023-12-20T03:16:08;4.50;99.90
20574;DHT22;10445;50.216;7.912;2023-12-20T03:18:37;4.50;99.90
20574;DHT22;10445;50.216;7.912;2023-12-20T03:21:06;4.50;99.90
20574;DHT22;10445;50.216;7.912;2023-12-20T03:23:34;4.50;99.90
20574;DHT22;10445;50.216;7.912;2023-12-20T03:26:03;4.50;99.90
20574;DHT22;10445;50.216;7.912;2023-12-20T03:28:36;4.50;99.90
20574;DHT22;10445;50.216;7.912;2023-12-20T03:31:04;4.50;99.90
20574;DHT22;10445;50.216;7.912;2023-12-20T03:33:33;4.50;99.90
20574;DHT22;10445;50.216;7.912;2023-12-20T03:36:01;4.50;99.90
20574;DHT22;10445;50.216;7.912;2023-12-20T03:38:30;4.50;99.90
20574;DHT22;10445;50.216;7.912;2023-12-20T03:40:58;4.50;99.90
20574;DHT22;10445;50.216;7.912;2023-12-20T03:43:27;4.50;99.90
20574;DHT22;10445;50.216;7.912;2023-12-20T03:45:57;4.50;99.90
20574;DHT22;10445;50.216;7.912;2023-12-20T03:48:26;4.50;99.90
20574;DHT22;10445;50.216;7.912;2023-12-20T03:50:54;4.50;99.90
20574;DHT22;10445;50.216;7.912;2023-12-20T03:53:23;4.50;99.90
20574;DHT22;10445;50.216;7.912;2023-12-20T03:55:51;4.50;99.90
20574;DHT22;10445;50.216;7.912;2023-12-20T03:58:20;4.40;99.90
20574;DHT22;10445;50.216;7.912;2023-12-20T04:00:48;4.40;99.90
20574;DHT22;10445;50.216;7.912;2023-12-20T04:03:18;4.40;99.90
20574;DHT22;10445;50.216;7.912;2023-12-20T04:05:46;4.40;99.90
20574;DHT22;10445;50.216;7.912;2023-12-20T04:08:15;4.30;99.90
20574;DHT22;10445;50.216;7.912;2023-12-20T04:10:43;4.20;99.90
20574;DHT22;10445;50.216;7.912;2023-12-20T04:13:12;4.20;99.90
20574;DHT22;10445;50.216;7.912;2023-12-20T04:15:40;4.00;99.90
20574;DHT22;10445;50.216;7.912;2023-12-20T04:18:09;3.90;99.90
20574;DHT22;10445;50.216;7.912;2023-12-20T04:20:39;3.80;99.90
20574;DHT22;10445;50.216;7.912;2023-12-20T04:23:07;3.70;99.90
20574;DHT22;10445;50.216;7.912;2023-12-20T04:25:35;3.70;99.90
20574;DHT22;10445;50.216;7.912;2023-12-20T04:28:04;3.50;99.90
20574;DHT22;10445;50.216;7.912;2023-12-20T04:30:33;3.50;99.90
20574;DHT22;10445;50.216;7.912;2023-12-20T04:33:02;3.40;99.90
20574;DHT22;10445;50.216;7.912;2023-12-20T04:35:31;3.40;99.90
20574;DHT22;10445;50.216;7.912;2023-12-20T04:38:01;3.30;99.90
20574;DHT22;10445;50.216;7.912;2023-12-20T04:40:29;3.30;99.90
20574;DHT22;10445;50.216;7.912;2023-12-20T04:42:58;3.30;99.90
20574;DHT22;10445;50.216;7.912;2023-12-20T04:45:26;3.40;99.90
20574;DHT22;10445;50.216;7.912;2023-12-20T04:47:55;3.40;99.90
20574;DHT22;10445;50.216;7.912;2023-12-20T04:50:23;3.40;99.90
20574;DHT22;10445;50.216;7.912;2023-12-20T04:52:52;3.40;99.90
20574;DHT22;10445;50.216;7.912;2023-12-20T04:55:22;3.40;98.80
20574;DHT22;10445;50.216;7.912;2023-12-20T04:57:50;3.40;97.20
20574;DHT22;10445;50.216;7.912;2023-12-20T05:00:19;3.40;95.20
20574;DHT22;10445;50.216;7.912;2023-12-20T05:02:47;3.40;95.10
20574;DHT22;10445;50.216;7.912;2023-12-20T05:05:16;3.40;93.70
20574;DHT22;10445;50.216;7.912;2023-12-20T05:07:45;3.40;92.90
20574;DHT22;10445;50.216;7.912;2023-12-20T05:10:14;3.40;92.20
20574;DHT22;10445;50.216;7.912;2023-12-20T05:12:44;3.40;91.10
20574;DHT22;10445;50.216;7.912;2023-12-20T05:15:12;3.40;91.10
20574;DHT22;10445;50.216;7.912;2023-12-20T05:17:41;3.40;91.90
20574;DHT22;10445;50.216;7.912;2023-12-20T05:20:10;3.30;91.60
20574;DHT22;10445;50.216;7.912;2023-12-20T05:22:39;3.30;91.10
20574;DHT22;10445;50.216;7.912;2023-12-20T05:25:07;3.40;91.60
20574;DHT22;10445;50.216;7.912;2023-12-20T05:27:36;3.30;91.80
20574;DHT22;10445;50.216;7.912;2023-12-20T05:30:07;3.30;91.60
20574;DHT22;10445;50.216;7.912;2023-12-20T05:32:36;3.20;92.20
20574;DHT22;10445;50.216;7.912;2023-12-20T05:35:06;3.20;92.70
20574;DHT22;10445;50.216;7.912;2023-12-20T05:37:34;3.20;92.70
20574;DHT22;10445;50.216;7.912;2023-12-20T05:40:03;3.10;92.70
20574;DHT22;10445;50.216;7.912;2023-12-20T05:42:32;3.20;93.40
20574;DHT22;10445;50.216;7.912;2023-12-20T05:45:01;3.10;93.80
20574;DHT22;10445;50.216;7.912;2023-12-20T05:47:30;3.00;94.40
20574;DHT22;10445;50.216;7.912;2023-12-20T05:49:59;3.00;95.20
20574;DHT22;10445;50.216;7.912;2023-12-20T05:52:27;2.90;95.30
20574;DHT22;10445;50.216;7.912;2023-12-20T05:54:56;3.00;95.00
20574;DHT22;10445;50.216;7.912;2023-12-20T05:57:25;2.90;95.00
20574;DHT22;10445;50.216;7.912;2023-12-20T05:59:53;3.00;94.70
20574;DHT22;10445;50.216;7.912;2023-12-20T06:02:21;3.00;94.50
20574;DHT22;10445;50.216;7.912;2023-12-20T06:04:51;3.00;93.90
20574;DHT22;10445;50.216;7.912;2023-12-20T06:07:20;3.00;92.90
20574;DHT22;10445;50.216;7.912;2023-12-20T06:09:48;3.00;92.40
20574;DHT22;10445;50.216;7.912;2023-12-20T06:12:18;3.00;93.10
20574;DHT22;10445;50.216;7.912;2023-12-20T06:14:46;3.00;94.30
20574;DHT22;10445;50.216;7.912;2023-12-20T06:17:14;3.00;94.30
20574;DHT22;10445;50.216;7.912;2023-12-20T06:19:43;3.00;93.40
20574;DHT22;10445;50.216;7.912;2023-12-20T06:22:16;3.00;93.20
20574;DHT22;10445;50.216;7.912;2023-12-20T06:24:45;2.90;93.60
20574;DHT22;10445;50.216;7.912;2023-12-20T06:27:13;2.90;94.10
20574;DHT22;10445;50.216;7.912;2023-12-20T06:29:42;2.90;94.20
20574;DHT22;10445;50.216;7.912;2023-12-20T06:32:12;3.00;93.70
20574;DHT22;10445;50.216;7.912;2023-12-20T06:34:40;3.00;93.80
20574;DHT22;10445;50.216;7.912;2023-12-20T06:37:09;2.90;94.70
20574;DHT22;10445;50.216;7.912;2023-12-20T06:39:39;2.90;94.00
20574;DHT22;10445;50.216;7.912;2023-12-20T06:42:07;2.90;93.80
20574;DHT22;10445;50.216;7.912;2023-12-20T06:44:35;2.90;94.20
20574;DHT22;10445;50.216;7.912;2023-12-20T06:47:04;3.00;94.60
20574;DHT22;10445;50.216;7.912;2023-12-20T06:49:33;3.00;95.10
20574;DHT22;10445;50.216;7.912;2023-12-20T06:52:01;3.00;95.20
20574;DHT22;10445;50.216;7.912;2023-12-20T06:54:30;3.00;95.10
20574;DHT22;10445;50.216;7.912;2023-12-20T06:57:00;3.10;94.90
20574;DHT22;10445;50.216;7.912;2023-12-20T06:59:30;3.20;94.70
20574;DHT22;10445;50.216;7.912;2023-12-20T07:01:58;3.10;94.90
20574;DHT22;10445;50.216;7.912;2023-12-20T07:04:27;3.20;94.60
20574;DHT22;10445;50.216;7.912;2023-12-20T07:06:55;3.10;95.00
20574;DHT22;10445;50.216;7.912;2023-12-20T07:09:27;3.20;96.10
20574;DHT22;10445;50.216;7.912;2023-12-20T07:11:55;3.20;96.70
20574;DHT22;10445;50.216;7.912;2023-12-20T07:14:25;3.10;97.10
20574;DHT22;10445;50.216;7.912;2023-12-20T07:16:54;3.20;97.70
20574;DHT22;10445;50.216;7.912;2023-12-20T07:19:23;3.20;97.50
20574;DHT22;10445;50.216;7.912;2023-12-20T07:21:51;3.20;97.10
20574;DHT22;10445;50.216;7.912;2023-12-20T07:24:20;3.20;97.40
20574;DHT22;10445;50.216;7.912;2023-12-20T07:26:48;3.20;97.00
20574;DHT22;10445;50.216;7.912;2023-12-20T07:29:17;3.20;96.10
20574;DHT22;10445;50.216;7.912;2023-12-20T07:31:47;3.20;96.50
20574;DHT22;10445;50.216;7.912;2023-12-20T07:34:16;3.20;95.50
20574;DHT22;10445;50.216;7.912;2023-12-20T07:36:44;3.20;95.50
20574;DHT22;10445;50.216;7.912;2023-12-20T07:39:13;3.20;95.40
20574;DHT22;10445;50.216;7.912;2023-12-20T07:41:42;3.20;95.90
20574;DHT22;10445;50.216;7.912;2023-12-20T07:44:12;3.20;95.90
20574;DHT22;10445;50.216;7.912;2023-12-20T07:46:42;3.20;96.00
20574;DHT22;10445;50.216;7.912;2023-12-20T07:49:12;3.20;96.30
20574;DHT22;10445;50.216;7.912;2023-12-20T07:51:41;3.30;96.30
20574;DHT22;10445;50.216;7.912;2023-12-20T07:54:09;3.30;95.80
20574;DHT22;10445;50.216;7.912;2023-12-20T07:56:38;3.30;95.80
20574;DHT22;10445;50.216;7.912;2023-12-20T07:59:07;3.30;96.00
20574;DHT22;10445;50.216;7.912;2023-12-20T08:01:50;3.30;96.30
20574;DHT22;10445;50.216;7.912;2023-12-20T08:04:20;3.30;97.10
20574;DHT22;10445;50.216;7.912;2023-12-20T08:06:50;3.30;97.20
20574;DHT22;10445;50.216;7.912;2023-12-20T08:09:18;3.30;98.30
20574;DHT22;10445;50.216;7.912;2023-12-20T08:11:47;3.40;99.00
20574;DHT22;10445;50.216;7.912;2023-12-20T08:14:16;3.30;99.50
20574;DHT22;10445;50.216;7.912;2023-12-20T08:16:44;3.30;99.60
20574;DHT22;10445;50.216;7.912;2023-12-20T08:19:13;3.30;99.90
20574;DHT22;10445;50.216;7.912;2023-12-20T08:21:43;3.40;99.90
20574;DHT22;10445;50.216;7.912;2023-12-20T08:24:11;3.40;99.90
20574;DHT22;10445;50.216;7.912;2023-12-20T08:26:40;3.40;99.90
20574;DHT22;10445;50.216;7.912;2023-12-20T08:29:09;3.40;99.90
20574;DHT22;10445;50.216;7.912;2023-12-20T08:31:37;3.40;99.90
20574;DHT22;10445;50.216;7.912;2023-12-20T08:34:06;3.40;99.90
20574;DHT22;10445;50.216;7.912;2023-12-20T08:36:35;3.40;99.90
20574;DHT22;10445;50.216;7.912;2023-12-20T08:39:05;3.40;99.90
20574;DHT22;10445;50.216;7.912;2023-12-20T08:41:35;3.50;99.90
20574;DHT22;10445;50.216;7.912;2023-12-20T08:44:04;3.50;99.90
20574;DHT22;10445;50.216;7.912;2023-12-20T08:46:33;3.60;99.90
20574;DHT22;10445;50.216;7.912;2023-12-20T08:49:02;3.60;99.90
20574;DHT22;10445;50.216;7.912;2023-12-20T08:51:30;3.60;99.90
20574;DHT22;10445;50.216;7.912;2023-12-20T08:54:00;3.60;99.90
20574;DHT22;10445;50.216;7.912;2023-12-20T08:56:30;3.70;99.90
20574;DHT22;10445;50.216;7.912;2023-12-20T08:58:59;3.70;99.90
20574;DHT22;10445;50.216;7.912;2023-12-20T09:01:27;3.70;99.90
20574;DHT22;10445;50.216;7.912;2023-12-20T09:03:56;3.80;99.90
20574;DHT22;10445;50.216;7.912;2023-12-20T09:06:24;3.80;99.90
20574;DHT22;10445;50.216;7.912;2023-12-20T09:08:53;3.80;99.90
20574;DHT22;10445;50.216;7.912;2023-12-20T09:11:21;3.80;99.90
20574;DHT22;10445;50.216;7.912;2023-12-20T09:13:51;3.90;99.90
20574;DHT22;10445;50.216;7.912;2023-12-20T09:16:20;3.90;99.90
20574;DHT22;10445;50.216;7.912;2023-12-20T09:18:48;3.90;99.90
20574;DHT22;10445;50.216;7.912;2023-12-20T09:21:17;4.00;99.90
20574;DHT22;10445;50.216;7.912;2023-12-20T09:23:46;4.00;99.90
20574;DHT22;10445;50.216;7.912;2023-12-20T09:26:14;4.00;99.90
20574;DHT22;10445;50.216;7.912;2023-12-20T09:28:43;4.00;99.90
20574;DHT22;10445;50.216;7.912;2023-12-20T09:31:13;4.00;99.70
20574;DHT22;10445;50.216;7.912;2023-12-20T09:33:42;4.10;99.50
20574;DHT22;10445;50.216;7.912;2023-12-20T09:36:10;4.00;99.20
20574;DHT22;10445;50.216;7.912;2023-12-20T09:38:40;4.10;99.90
20574;DHT22;10445;50.216;7.912;2023-12-20T09:41:11;4.10;99.90
20574;DHT22;10445;50.216;7.912;2023-12-20T09:43:41;4.20;98.30
20574;DHT22;10445;50.216;7.912;2023-12-20T09:46:10;4.20;96.60
20574;DHT22;10445;50.216;7.912;2023-12-20T09:48:43;4.20;96.40
20574;DHT22;10445;50.216;7.912;2023-12-20T09:51:13;4.30;95.80
20574;DHT22;10445;50.216;7.912;2023-12-20T09:53:43;4.30;96.00
20574;DHT22;10445;50.216;7.912;2023-12-20T09:56:12;4.30;95.70
20574;DHT22;10445;50.216;7.912;2023-12-20T09:58:41;4.40;94.60
20574;DHT22;10445;50.216;7.912;2023-12-20T10:01:10;4.40;94.90
20574;DHT22;10445;50.216;7.912;2023-12-20T10:03:41;4.40;94.00
20574;DHT22;10445;50.216;7.912;2023-12-20T10:06:09;4.40;94.40
20574;DHT22;10445;50.216;7.912;2023-12-20T10:08:39;4.50;91.40
20574;DHT22;10445;50.216;7.912;2023-12-20T10:11:07;4.50;91.00
20574;DHT22;10445;50.216;7.912;2023-12-20T10:13:39;4.50;90.20
20574;DHT22;10445;50.216;7.912;2023-12-20T10:16:08;4.40;89.70
20574;DHT22;10445;50.216;7.912;2023-12-20T10:18:37;4.20;90.00
20574;DHT22;10445;50.216;7.912;2023-12-20T10:21:07;4.20;91.50
20574;DHT22;10445;50.216;7.912;2023-12-20T10:23:37;4.10;93.70
20574;DHT22;10445;50.216;7.912;2023-12-20T10:26:08;4.20;94.00
20574;DHT22;10445;50.216;7.912;2023-12-20T10:28:37;4.30;90.60
20574;DHT22;10445;50.216;7.912;2023-12-20T10:31:06;4.40;89.40
20574;DHT22;10445;50.216;7.912;2023-12-20T10:33:35;4.60;89.00
20574;DHT22;10445;50.216;7.912;2023-12-20T10:36:07;4.80;84.90
20574;DHT22;10445;50.216;7.912;2023-12-20T10:38:38;5.10;82.70
20574;DHT22;10445;50.216;7.912;2023-12-20T10:41:09;5.60;75.80
20574;DHT22;10445;50.216;7.912;2023-12-20T10:43:39;5.80;65.40
20574;DHT22;10445;50.216;7.912;2023-12-20T10:46:08;6.10;61.20
20574;DHT22;10445;50.216;7.912;2023-12-20T10:48:38;6.60;57.70
20574;DHT22;10445;50.216;7.912;2023-12-20T10:51:09;6.90;50.00
20574;DHT22;10445;50.216;7.912;2023-12-20T10:53:39;6.70;50.50
20574;DHT22;10445;50.216;7.912;2023-12-20T10:56:12;6.30;50.80
20574;DHT22;10445;50.216;7.912;2023-12-20T10:58:44;5.90;59.10
20574;DHT22;10445;50.216;7.912;2023-12-20T11:01:13;5.80;60.00
20574;DHT22;10445;50.216;7.912;2023-12-20T11:03:46;5.50;65.60
20574;DHT22;10445;50.216;7.912;2023-12-20T11:06:31;5.40;69.10
20574;DHT22;10445;50.216;7.912;2023-12-20T11:09:11;5.20;71.20
20574;DHT22;10445;50.216;7.912;2023-12-20T11:11:51;4.90;71.00
20574;DHT22;10445;50.216;7.912;2023-12-20T11:14:25;4.90;74.10
20574;DHT22;10445;50.216;7.912;2023-12-20T11:17:06;4.80;75.10
20574;DHT22;10445;50.216;7.912;2023-12-20T11:19:37;4.70;76.20
20574;DHT22;10445;50.216;7.912;2023-12-20T11:22:09;4.60;76.70
20574;DHT22;10445;50.216;7.912;2023-12-20T11:24:44;4.60;78.00
20574;DHT22;10445;50.216;7.912;2023-12-20T11:27:12;4.50;79.30
20574;DHT22;10445;50.216;7.912;2023-12-20T11:29:41;4.50;80.70
20574;DHT22;10445;50.216;7.912;2023-12-20T11:32:29;4.50;80.50
20574;DHT22;10445;50.216;7.912;2023-12-20T11:34:59;4.50;80.30
20574;DHT22;10445;50.216;7.912;2023-12-20T11:37:31;4.50;76.00
20574;DHT22;10445;50.216;7.912;2023-12-20T11:40:02;4.60;77.30
20574;DHT22;10445;50.216;7.912;2023-12-20T11:42:33;4.60;77.90
20574;DHT22;10445;50.216;7.912;2023-12-20T11:45:02;4.60;79.60
20574;DHT22;10445;50.216;7.912;2023-12-20T11:47:32;4.60;79.40
20574;DHT22;10445;50.216;7.912;2023-12-20T11:50:00;4.60;78.60
20574;DHT22;10445;50.216;7.912;2023-12-20T11:52:32;4.80;79.50
20574;DHT22;10445;50.216;7.912;2023-12-20T11:55:01;4.80;78.40
20574;DHT22;10445;50.216;7.912;2023-12-20T11:57:30;4.80;79.30
20574;DHT22;10445;50.216;7.912;2023-12-20T11:59:59;4.80;76.50
20574;DHT22;10445;50.216;7.912;2023-12-20T12:02:28;4.80;78.00
20574;DHT22;10445;50.216;7.912;2023-12-20T12:04:56;4.80;80.20
20574;DHT22;10445;50.216;7.912;2023-12-20T12:07:26;4.80;80.70
20574;DHT22;10445;50.216;7.912;2023-12-20T12:09:56;4.80;79.70
20574;DHT22;10445;50.216;7.912;2023-12-20T12:12:24;4.80;79.40
20574;DHT22;10445;50.216;7.912;2023-12-20T12:14:54;4.80;77.60
20574;DHT22;10445;50.216;7.912;2023-12-20T12:17:25;4.80;76.90
20574;DHT22;10445;50.216;7.912;2023-12-20T12:20:02;4.80;78.70
20574;DHT22;10445;50.216;7.912;2023-12-20T12:22:32;4.80;76.70
20574;DHT22;10445;50.216;7.912;2023-12-20T12:25:11;4.90;77.50
20574;DHT22;10445;50.216;7.912;2023-12-20T12:27:41;4.90;76.20
20574;DHT22;10445;50.216;7.912;2023-12-20T12:30:10;4.90;77.40
20574;DHT22;10445;50.216;7.912;2023-12-20T12:32:40;4.90;76.10
20574;DHT22;10445;50.216;7.912;2023-12-20T12:35:09;4.90;77.10
20574;DHT22;10445;50.216;7.912;2023-12-20T12:37:39;4.90;78.40
20574;DHT22;10445;50.216;7.912;2023-12-20T12:40:11;5.00;78.30
20574;DHT22;10445;50.216;7.912;2023-12-20T12:42:41;5.00;80.10
20574;DHT22;10445;50.216;7.912;2023-12-20T12:45:09;5.00;81.40
20574;DHT22;10445;50.216;7.912;2023-12-20T12:47:38;4.90;80.50
20574;DHT22;10445;50.216;7.912;2023-12-20T12:50:09;4.90;81.20
20574;DHT22;10445;50.216;7.912;2023-12-20T12:52:38;4.80;80.10
20574;DHT22;10445;50.216;7.912;2023-12-20T12:55:08;4.90;81.70
20574;DHT22;10445;50.216;7.912;2023-12-20T12:57:39;4.90;81.00
20574;DHT22;10445;50.216;7.912;2023-12-20T13:00:09;4.90;81.10
20574;DHT22;10445;50.216;7.912;2023-12-20T13:02:38;4.90;80.20
20574;DHT22;10445;50.216;7.912;2023-12-20T13:05:09;5.00;79.50
20574;DHT22;10445;50.216;7.912;2023-12-20T13:07:38;5.00;78.90
20574;DHT22;10445;50.216;7.912;2023-12-20T13:10:07;5.00;81.10
20574;DHT22;10445;50.216;7.912;2023-12-20T13:12:35;5.00;80.50
20574;DHT22;10445;50.216;7.912;2023-12-20T13:15:06;4.90;81.50
20574;DHT22;10445;50.216;7.912;2023-12-20T13:17:36;4.90;83.10
20574;DHT22;10445;50.216;7.912;2023-12-20T13:20:05;4.90;82.70
20574;DHT22;10445;50.216;7.912;2023-12-20T13:22:34;4.90;84.20
20574;DHT22;10445;50.216;7.912;2023-12-20T13:25:04;4.90;83.80
20574;DHT22;10445;50.216;7.912;2023-12-20T13:27:33;4.90;84.70
20574;DHT22;10445;50.216;7.912;2023-12-20T13:30:02;4.90;84.60
20574;DHT22;10445;50.216;7.912;2023-12-20T13:32:32;4.90;84.00
20574;DHT22;10445;50.216;7.912;2023-12-20T13:35:01;4.90;83.30
20574;DHT22;10445;50.216;7.912;2023-12-20T13:37:31;4.80;81.50
20574;DHT22;10445;50.216;7.912;2023-12-20T13:40:00;4.90;83.60
20574;DHT22;10445;50.216;7.912;2023-12-20T13:42:29;4.80;83.60
20574;DHT22;10445;50.216;7.912;2023-12-20T13:44:58;4.80;85.10
20574;DHT22;10445;50.216;7.912;2023-12-20T13:47:26;4.80;85.50
20574;DHT22;10445;50.216;7.912;2023-12-20T13:49:58;4.80;83.90
20574;DHT22;10445;50.216;7.912;2023-12-20T13:52:27;4.70;84.30
20574;DHT22;10445;50.216;7.912;2023-12-20T13:54:55;4.80;86.20
20574;DHT22;10445;50.216;7.912;2023-12-20T13:57:24;4.80;86.20
20574;DHT22;10445;50.216;7.912;2023-12-20T14:00:14;4.80;84.90
20574;DHT22;10445;50.216;7.912;2023-12-20T14:02:42;4.80;85.60
20574;DHT22;10445;50.216;7.912;2023-12-20T14:05:12;4.70;85.70
20574;DHT22;10445;50.216;7.912;2023-12-20T14:07:41;4.70;86.80
20574;DHT22;10445;50.216;7.912;2023-12-20T14:10:13;4.70;85.50
20574;DHT22;10445;50.216;7.912;2023-12-20T14:12:41;4.80;85.80
20574;DHT22;10445;50.216;7.912;2023-12-20T14:15:12;4.70;85.40
20574;DHT22;10445;50.216;7.912;2023-12-20T14:17:41;4.70;86.10
20574;DHT22;10445;50.216;7.912;2023-12-20T14:20:12;4.70;86.30
20574;DHT22;10445;50.216;7.912;2023-12-20T14:22:40;4.70;86.60
20574;DHT22;10445;50.216;7.912;2023-12-20T14:25:11;4.60;86.80
20574;DHT22;10445;50.216;7.912;2023-12-20T14:27:41;4.60;85.30
20574;DHT22;10445;50.216;7.912;2023-12-20T14:30:12;4.60;86.30
20574;DHT22;10445;50.216;7.912;2023-12-20T14:32:42;4.60;88.40
20574;DHT22;10445;50.216;7.912;2023-12-20T14:35:12;4.60;87.60
20574;DHT22;10445;50.216;7.912;2023-12-20T14:37:41;4.60;87.90
20574;DHT22;10445;50.216;7.912;2023-12-20T14:40:11;4.60;87.00
20574;DHT22;10445;50.216;7.912;2023-12-20T14:42:43;4.60;87.20
20574;DHT22;10445;50.216;7.912;2023-12-20T14:45:11;4.60;87.70
20574;DHT22;10445;50.216;7.912;2023-12-20T14:47:41;4.50;88.90
20574;DHT22;10445;50.216;7.912;2023-12-20T14:50:11;4.60;88.70
20574;DHT22;10445;50.216;7.912;2023-12-20T14:52:45;4.50;88.60
20574;DHT22;10445;50.216;7.912;2023-12-20T14:55:14;4.50;89.50
20574;DHT22;10445;50.216;7.912;2023-12-20T14:57:42;4.50;90.20
20574;DHT22;10445;50.216;7.912;2023-12-20T15:00:11;4.50;90.80
20574;DHT22;10445;50.216;7.912;2023-12-20T15:02:43;4.50;91.00
20574;DHT22;10445;50.216;7.912;2023-12-20T15:05:13;4.50;90.90
20574;DHT22;10445;50.216;7.912;2023-12-20T15:07:42;4.50;91.00
20574;DHT22;10445;50.216;7.912;2023-12-20T15:10:12;4.50;90.60
20574;DHT22;10445;50.216;7.912;2023-12-20T15:12:40;4.40;91.60
20574;DHT22;10445;50.216;7.912;2023-12-20T15:15:09;4.50;91.10
20574;DHT22;10445;50.216;7.912;2023-12-20T15:17:38;4.40;91.70
20574;DHT22;10445;50.216;7.912;2023-12-20T15:20:07;4.40;91.60
20574;DHT22;10445;50.216;7.912;2023-12-20T15:22:39;4.40;92.80
20574;DHT22;10445;50.216;7.912;2023-12-20T15:25:08;4.40;92.20
20574;DHT22;10445;50.216;7.912;2023-12-20T15:27:37;4.50;92.40
20574;DHT22;10445;50.216;7.912;2023-12-20T15:30:06;4.40;92.20
20574;DHT22;10445;50.216;7.912;2023-12-20T15:32:37;4.40;92.60
20574;DHT22;10445;50.216;7.912;2023-12-20T15:35:06;4.50;92.70
20574;DHT22;10445;50.216;7.912;2023-12-20T15:37:39;4.50;92.50
20574;DHT22;10445;50.216;7.912;2023-12-20T15:40:08;4.50;92.30
20574;DHT22;10445;50.216;7.912;2023-12-20T15:42:38;4.50;92.10
20574;DHT22;10445;50.216;7.912;2023-12-20T15:45:08;4.50;92.70
20574;DHT22;10445;50.216;7.912;2023-12-20T15:47:36;4.50;92.30
20574;DHT22;10445;50.216;7.912;2023-12-20T15:50:06;4.50;91.40
20574;DHT22;10445;50.216;7.912;2023-12-20T15:52:35;4.50;92.20
20574;DHT22;10445;50.216;7.912;2023-12-20T15:55:07;4.50;92.40
20574;DHT22;10445;50.216;7.912;2023-12-20T15:57:36;4.60;92.20
20574;DHT22;10445;50.216;7.912;2023-12-20T16:00:19;4.50;92.60